Aeroporto :
LOGIN :

Iscrizione | Disclaimer

   EN    FR    IT 

 










Sommario :    VFR   VFR Marginale   IFR   IFR Intensivo   IFR Molto Intensivo
Visibilità : 
Base nubi : 
>= 8 km
>= 3000ft
5 / 8 km
1000 / 3000 ft
1500m / 5 km
500 / 1000 ft
800 / 1500m
200 / 500 ft
< 800m
< 200 ft
Simboli :   Temporali  Nebbia  Neve Forte  Precipitazioni Forti  Vento > 20 kt
SIGMETs :   Varie  Temporali  Ghiacco  Turbolenza  Onda orograficha  Ceneri Vulcaniche






- Altitudine del aeroporto : 100 ft


EBDT - Schaffen

ULTIMO METAR :
  • 290625Z AUTO 35011KT 9999 FEW075/// BKN100/// OVC130/// 03/00 Q1028 BLU

METARs OBSOLETI :
  • 290555Z AUTO 35011KT 9999 FEW080/// SCT100/// BKN140/// 03/00 Q1027 BLU
  • 290525Z AUTO 35011KT 9999 BKN070/// BKN130/// 03/00 Q1027 BLU
  • 290455Z AUTO 35011KT 9999 BKN060/// OVC085/// 04/00 Q1027 BLU
  • 290425Z AUTO 35012KT 9999 SCT060/// BKN085/// OVC100/// 04/00 Q1027 BLU
  • 290355Z AUTO 34008KT 9999 SCT060/// BKN080/// OVC100/// 03/M00 Q1027 BLU

Previsioni scadute.



MetMap, La meteo Aeronautica in un colpo d'occhio ! - Copyright ORBIFLY Dicembre 2007 - Disclaimer

ORBIFLY MET'MAP TEAM :

Programmazione e sviluppo : Alexandra Zaïnal
Concezione : Baudouin d'Aumeries
Aiuto per la programmazione : Marc-Olivier Méhu
Supporto tecnico e logistico : Manuel Goepfert
Aiuto per la traduzione : Arnaldo La Scala

Contatto : metmap@orbifly.com




FONTI E CREDITI :

   NOAA